Nearby METAR Reports

 

KMRB - Martinsburg, West Virginia, USA
Distance from station: NNW 9mi, 14km
Updated: 06/24/2018 7:53pm
Few Clouds
Few Clouds
 Wind from WNW
Wind: WNW 10 mph , 17 km/h
Temperature: 82°F , 28°C
Heat Index: 83°F , 28°C
Dew Point: 63°F , 17°C
Humidity: 51%
Barometer: 29.86 inHg , 1011.2 hPa
Clouds: Few Clouds
Visibility: 10 miles , 16 km
Cloud details: Few Clouds 10000 ft
2018/06/24 23:53 KMRB 242353Z AUTO 30009KT 10SM FEW100 28/17 A2986 RMK AO2 SLP108 T02780172 10294 20267 53010 $
KOKV - Winchester Rgnl, Virginia, USA
Distance from station: SW 17mi, 28km
Updated: 06/24/2018 8:15pm
Partly cloudy
Partly cloudy
 Wind from calm
Wind: Calm
Temperature: 77°F , 25°C
Dew Point: 64°F , 18°C
Humidity: 65%
Barometer: 29.92 inHg , 1013.2 hPa
Clouds: Partly cloudy
Visibility: 10 miles , 16 km
Cloud details: Partly cloudy 6500 ft
2018/06/25 00:15 KOKV 250015Z AUTO 00000KT 10SM SCT065 25/18 A2992 RMK AO2
 
KJYO - Leesburg/Godfrey, Virginia, USA
Distance from station: SE 23mi, 38km
Updated: 06/24/2018 8:15pm
Partly cloudy
Partly cloudy
 Wind from calm
Wind: Calm
Temperature: 79°F , 26°C
Dew Point: 73°F , 23°C
Humidity: 84%
Barometer: 29.89 inHg , 1012.2 hPa
Clouds: Partly cloudy
Visibility: 10 miles , 16 km
Cloud details: Partly cloudy 5500 ft
Partly cloudy 7000 ft
2018/06/25 00:15 KJYO 250015Z AUTO 00000KT 10SM SCT055 SCT070 26/23 A2989 RMK AO2
KFDK - Frederick, Maryland, USA
Distance from station: ENE 30mi, 48km
Updated: 06/24/2018 7:48pm
Clear
Clear
 Wind from N
Wind: N 3 mph , 6 km/h
Temperature: 79°F , 26°C
Dew Point: 70°F , 21°C
Humidity: 74%
Barometer: 29.90 inHg , 1012.5 hPa
Clouds: Clear
Visibility: 10 miles , 16 km
2018/06/24 23:48 KFDK 242348Z 01003KT 10SM SKC 26/21 A2990 RMK TCU DSNT SE
 
KHGR - Hagerstown, Maryland, USA
Distance from station: NNE 30mi, 48km
Updated: 06/24/2018 7:53pm
Clear
Clear
 Wind from WSW
Wind: WSW 6 mph , 9 km/h
Temperature: 81°F , 27°C
Heat Index: 84°F , 29°C
Dew Point: 68°F , 20°C
Humidity: 66%
Barometer: 29.88 inHg , 1011.9 hPa
Clouds: Clear
Visibility: 10 miles , 16 km
2018/06/24 23:53 KHGR 242353Z 24005KT 10SM CLR 27/20 A2988 RMK AO2 SLP121 60020 T02670200 10306 20228 53011
KIAD - Wash Dc/Dulles, Virginia, USA
Distance from station: SE 34mi, 55km
Updated: 06/24/2018 7:52pm
Few Clouds
Few Clouds
 Wind from SSW
Wind: SSW 6 mph , 9 km/h
Temperature: 81°F , 27°C
Heat Index: 85°F , 29°C
Dew Point: 72°F , 22°C
Humidity: 74%
Barometer: 29.86 inHg , 1011.2 hPa
Clouds: Few Clouds
Visibility: 10 miles , 16 km
Cloud details: Few Clouds 4800 ft
Few Clouds 20000 ft
2018/06/24 23:52 KIAD 242352Z 21005KT 10SM FEW048TCU FEW200 27/22 A2986 RMK AO2 SLP108 TCU NW
 
KRSP - Nsf Thurmont, Maryland, USA
Distance from station: NE 34mi, 55km
Updated: 06/24/2018 7:54pm
Mist, Clear
Mist, Clear
 Wind from NNW
Wind: NNW 6 mph , 9 km/h
Temperature: 68°F , 20°C
Dew Point: 68°F , 20°C
Humidity: 100%
Barometer: 29.93 inHg , 1013.5 hPa
Summary: Mist
Clouds: Clear
Visibility: 6 miles , 10 km
2018/06/24 23:54 KRSP 242354Z AUTO 33005KT 6SM BR CLR 20/20 A2993 RMK AO2 SLP129 60022 T02000200 10261 20194 53015 $
KGAI - Gaithersburg, Maryland, USA
Distance from station: E 40mi, 64km
Updated: 06/24/2018 8:11pm
Light rain, Mostly cloudy
Light rain, Mostly cloudy
 Wind from calm
Wind: Calm
Temperature: 72°F , 22°C
Dew Point: 70°F , 21°C
Humidity: 94%
Barometer: 29.90 inHg , 1012.5 hPa
Summary: Light rain
Clouds: Mostly cloudy
Visibility: 9 miles , 14 km
Cloud details: Few Clouds 1800 ft
Partly cloudy 3100 ft
Mostly cloudy 4400 ft
2018/06/25 00:11 KGAI 250011Z AUTO 00000KT 9SM -RA FEW018 SCT031 BKN044 22/21 A2990 RMK AO2 TSE2359 P0000
 
KRYT - Fountain Dale, Pennsylvania, USA
Distance from station: NE 40mi, 64km
Updated: 11/13/2017 7:53am
NOT Current
Mist, Overcast
Mist, Overcast
 Wind from calm
Wind: Calm
Temperature: 37°F , 3°C
Dew Point: 34°F , 1°C
Humidity: 87%
Barometer: 30.31 inHg , 1026.4 hPa
Summary: Mist
Clouds: Overcast
Visibility: 5 miles , 8 km
Cloud details: Overcast 700 ft
2017/11/13 12:53 KRYT 131253Z AUTO 00000KT 5SM BR OVC007 03/01 A3031 RMK AO2 SLP275 T00280011 TSNO $
KHEF - Manassas Muni, Virginia, USA
Distance from station: SSE 44mi, 72km
Updated: 06/24/2018 7:56pm
Clear
Clear
 Wind from S
Wind: S 5 mph , 7 km/h
Temperature: 81°F , 27°C
Heat Index: 86°F , 30°C
Dew Point: 73°F , 23°C
Humidity: 79%
Barometer: 29.86 inHg , 1011.2 hPa
Clouds: Clear
Visibility: 10 miles , 16 km
2018/06/24 23:56 KHEF 242356Z 19004KT 10SM CLR 27/23 A2986 RMK AO2 SLP120 6//// T02670233 10300 20244 53003 PNO $
 
KHWY - Warrenton, Virginia, USA
Distance from station: SSE 50mi, 80km
Updated: 06/24/2018 8:15pm
Clear
Clear
 Wind from SW
Wind: SW 3 mph , 6 km/h
Temperature: 79°F , 26°C
Dew Point: 70°F , 21°C
Humidity: 74%
Barometer: 29.88 inHg , 1011.9 hPa
Clouds: Clear
Visibility: 10 miles , 16 km
2018/06/25 00:15 KHWY 250015Z AUTO 23003KT 10SM CLR 26/21 A2988 RMK AO2 T02580214